sensor_id;sensor_type;location;lat;lon;timestamp;pressure;altitude;pressure_sealevel;temperature;humidity
8061;BME280;4073;42.626;25.386;2023-08-21T00:02:17;97332.16;;;23.53;91.79
8061;BME280;4073;42.626;25.386;2023-08-21T00:04:42;97328.03;;;23.43;91.41
8061;BME280;4073;42.626;25.386;2023-08-21T00:07:08;97336.03;;;23.52;87.90
8061;BME280;4073;42.626;25.386;2023-08-21T00:09:36;97336.81;;;23.52;87.38
8061;BME280;4073;42.626;25.386;2023-08-21T00:12:01;97346.84;;;23.48;88.15
8061;BME280;4073;42.626;25.386;2023-08-21T00:14:27;97342.91;;;23.46;90.63
8061;BME280;4073;42.626;25.386;2023-08-21T00:16:52;97333.03;;;23.41;91.58
8061;BME280;4073;42.626;25.386;2023-08-21T00:19:18;97342.25;;;23.37;93.32
8061;BME280;4073;42.626;25.386;2023-08-21T00:22:01;97339.59;;;23.25;93.68
8061;BME280;4073;42.626;25.386;2023-08-21T00:24:27;97345.97;;;23.17;91.96
8061;BME280;4073;42.626;25.386;2023-08-21T00:26:52;97339.00;;;23.04;90.16
8061;BME280;4073;42.626;25.386;2023-08-21T00:29:18;97349.34;;;22.98;91.46
8061;BME280;4073;42.626;25.386;2023-08-21T00:31:43;97342.56;;;22.92;91.55
8061;BME280;4073;42.626;25.386;2023-08-21T00:34:09;97342.56;;;22.92;92.54
8061;BME280;4073;42.626;25.386;2023-08-21T00:36:34;97346.06;;;22.93;93.13
8061;BME280;4073;42.626;25.386;2023-08-21T00:39:00;97340.06;;;22.87;93.69
8061;BME280;4073;42.626;25.386;2023-08-21T00:41:25;97345.31;;;22.80;94.41
8061;BME280;4073;42.626;25.386;2023-08-21T00:43:51;97331.16;;;22.74;94.82
8061;BME280;4073;42.626;25.386;2023-08-21T00:46:16;97333.06;;;22.74;94.89
8061;BME280;4073;42.626;25.386;2023-08-21T00:48:43;97336.06;;;22.69;95.27
8061;BME280;4073;42.626;25.386;2023-08-21T00:51:09;97333.91;;;22.62;95.49
8061;BME280;4073;42.626;25.386;2023-08-21T00:53:36;97340.06;;;22.59;95.77
8061;BME280;4073;42.626;25.386;2023-08-21T00:56:01;97339.34;;;22.62;95.56
8061;BME280;4073;42.626;25.386;2023-08-21T00:58:27;97336.63;;;22.62;94.81
8061;BME280;4073;42.626;25.386;2023-08-21T01:00:53;97340.59;;;22.65;94.86
8061;BME280;4073;42.626;25.386;2023-08-21T01:03:19;97330.06;;;22.63;94.77
8061;BME280;4073;42.626;25.386;2023-08-21T01:05:45;97331.88;;;22.59;94.95
8061;BME280;4073;42.626;25.386;2023-08-21T01:10:53;97330.53;;;22.53;95.24
8061;BME280;4073;42.626;25.386;2023-08-21T01:16:05;97333.00;;;22.58;95.13
8061;BME280;4073;42.626;25.386;2023-08-21T01:18:33;97329.50;;;22.46;95.43
8061;BME280;4073;42.626;25.386;2023-08-21T01:21:01;97329.03;;;22.44;96.11
8061;BME280;4073;42.626;25.386;2023-08-21T01:23:34;97332.81;;;22.39;97.66
8061;BME280;4073;42.626;25.386;2023-08-21T01:26:00;97332.59;;;22.32;97.08
8061;BME280;4073;42.626;25.386;2023-08-21T01:28:26;97329.16;;;22.35;97.62
8061;BME280;4073;42.626;25.386;2023-08-21T01:33:30;97330.66;;;22.33;97.20
8061;BME280;4073;42.626;25.386;2023-08-21T01:35:59;97330.84;;;22.40;96.38
8061;BME280;4073;42.626;25.386;2023-08-21T01:38:25;97331.19;;;22.38;96.02
8061;BME280;4073;42.626;25.386;2023-08-21T01:40:51;97335.88;;;22.38;96.13
8061;BME280;4073;42.626;25.386;2023-08-21T01:43:16;97341.88;;;22.31;96.78
8061;BME280;4073;42.626;25.386;2023-08-21T01:45:42;97339.06;;;22.28;97.56
8061;BME280;4073;42.626;25.386;2023-08-21T01:48:08;97340.97;;;22.27;97.45
8061;BME280;4073;42.626;25.386;2023-08-21T01:50:34;97342.56;;;22.28;97.38
8061;BME280;4073;42.626;25.386;2023-08-21T01:52:59;97344.03;;;22.26;96.87
8061;BME280;4073;42.626;25.386;2023-08-21T01:55:24;97332.81;;;22.27;96.94
8061;BME280;4073;42.626;25.386;2023-08-21T01:57:50;97338.25;;;22.27;97.32
8061;BME280;4073;42.626;25.386;2023-08-21T02:00:15;97328.50;;;22.26;97.82
8061;BME280;4073;42.626;25.386;2023-08-21T02:02:41;97335.09;;;22.25;97.87
8061;BME280;4073;42.626;25.386;2023-08-21T02:05:06;97328.72;;;22.21;97.91
8061;BME280;4073;42.626;25.386;2023-08-21T02:07:32;97336.91;;;22.21;98.51
8061;BME280;4073;42.626;25.386;2023-08-21T02:09:57;97328.50;;;22.14;97.86
8061;BME280;4073;42.626;25.386;2023-08-21T02:12:23;97337.56;;;22.18;98.29
8061;BME280;4073;42.626;25.386;2023-08-21T02:14:48;97344.63;;;22.19;98.08
8061;BME280;4073;42.626;25.386;2023-08-21T02:17:14;97334.41;;;22.16;98.76
8061;BME280;4073;42.626;25.386;2023-08-21T02:19:39;97340.75;;;22.20;98.35
8061;BME280;4073;42.626;25.386;2023-08-21T02:22:05;97331.22;;;22.14;98.73
8061;BME280;4073;42.626;25.386;2023-08-21T02:24:30;97333.53;;;22.12;100.00
8061;BME280;4073;42.626;25.386;2023-08-21T02:26:56;97334.53;;;22.08;99.24
8061;BME280;4073;42.626;25.386;2023-08-21T02:29:21;97333.97;;;22.02;100.00
8061;BME280;4073;42.626;25.386;2023-08-21T02:31:46;97338.28;;;22.03;99.98
8061;BME280;4073;42.626;25.386;2023-08-21T02:34:12;97343.16;;;21.98;100.00
8061;BME280;4073;42.626;25.386;2023-08-21T02:36:37;97350.19;;;21.99;100.00
8061;BME280;4073;42.626;25.386;2023-08-21T02:39:03;97347.69;;;21.94;100.00
8061;BME280;4073;42.626;25.386;2023-08-21T02:41:29;97342.25;;;21.94;100.00
8061;BME280;4073;42.626;25.386;2023-08-21T02:43:54;97338.97;;;21.88;100.00
8061;BME280;4073;42.626;25.386;2023-08-21T02:46:20;97350.63;;;21.89;100.00
8061;BME280;4073;42.626;25.386;2023-08-21T02:48:45;97336.81;;;21.82;100.00
8061;BME280;4073;42.626;25.386;2023-08-21T02:51:11;97345.63;;;21.79;100.00
8061;BME280;4073;42.626;25.386;2023-08-21T02:53:36;97347.44;;;21.75;100.00
8061;BME280;4073;42.626;25.386;2023-08-21T02:56:02;97345.28;;;21.68;100.00
8061;BME280;4073;42.626;25.386;2023-08-21T02:58:27;97343.22;;;21.65;100.00
8061;BME280;4073;42.626;25.386;2023-08-21T03:00:53;97344.22;;;21.61;100.00
8061;BME280;4073;42.626;25.386;2023-08-21T03:03:18;97349.00;;;21.64;100.00
8061;BME280;4073;42.626;25.386;2023-08-21T03:05:44;97338.44;;;21.50;100.00
8061;BME280;4073;42.626;25.386;2023-08-21T03:08:09;97349.78;;;21.52;100.00
8061;BME280;4073;42.626;25.386;2023-08-21T03:10:35;97345.56;;;21.55;100.00
8061;BME280;4073;42.626;25.386;2023-08-21T03:13:02;97348.53;;;21.50;100.00
8061;BME280;4073;42.626;25.386;2023-08-21T03:15:28;97344.00;;;21.54;100.00
8061;BME280;4073;42.626;25.386;2023-08-21T03:17:54;97344.56;;;21.59;100.00
8061;BME280;4073;42.626;25.386;2023-08-21T03:20:20;97342.31;;;21.61;100.00
8061;BME280;4073;42.626;25.386;2023-08-21T03:22:46;97351.97;;;21.71;100.00
8061;BME280;4073;42.626;25.386;2023-08-21T03:25:11;97352.09;;;21.74;100.00
8061;BME280;4073;42.626;25.386;2023-08-21T03:27:37;97349.75;;;21.73;100.00
8061;BME280;4073;42.626;25.386;2023-08-21T03:30:06;97346.78;;;21.78;100.00
8061;BME280;4073;42.626;25.386;2023-08-21T03:32:32;97345.63;;;21.79;100.00
8061;BME280;4073;42.626;25.386;2023-08-21T03:34:58;97346.09;;;21.81;100.00
8061;BME280;4073;42.626;25.386;2023-08-21T03:37:24;97347.47;;;21.87;100.00
8061;BME280;4073;42.626;25.386;2023-08-21T03:39:49;97342.03;;;21.87;100.00
8061;BME280;4073;42.626;25.386;2023-08-21T03:42:15;97344.84;;;21.90;100.00
8061;BME280;4073;42.626;25.386;2023-08-21T03:44:40;97347.13;;;21.88;100.00
8061;BME280;4073;42.626;25.386;2023-08-21T03:47:06;97346.56;;;21.95;100.00
8061;BME280;4073;42.626;25.386;2023-08-21T03:49:31;97347.59;;;22.02;100.00
8061;BME280;4073;42.626;25.386;2023-08-21T03:51:57;97350.75;;;22.04;100.00
8061;BME280;4073;42.626;25.386;2023-08-21T03:54:22;97351.09;;;22.15;99.93
8061;BME280;4073;42.626;25.386;2023-08-21T03:56:48;97351.41;;;22.37;97.33
8061;BME280;4073;42.626;25.386;2023-08-21T03:59:13;97351.16;;;22.66;92.77
8061;BME280;4073;42.626;25.386;2023-08-21T04:01:38;97350.84;;;22.96;89.08
8061;BME280;4073;42.626;25.386;2023-08-21T04:04:04;97348.22;;;23.27;85.91
8061;BME280;4073;42.626;25.386;2023-08-21T04:06:29;97347.75;;;23.68;82.24
8061;BME280;4073;42.626;25.386;2023-08-21T04:08:55;97347.00;;;23.98;79.43
8061;BME280;4073;42.626;25.386;2023-08-21T04:11:20;97337.28;;;24.16;78.18
8061;BME280;4073;42.626;25.386;2023-08-21T04:13:46;97358.34;;;24.50;75.78
8061;BME280;4073;42.626;25.386;2023-08-21T04:16:11;97361.59;;;24.71;73.95
8061;BME280;4073;42.626;25.386;2023-08-21T04:18:37;97356.00;;;24.83;73.09
8061;BME280;4073;42.626;25.386;2023-08-21T04:21:04;97363.91;;;25.07;71.22
8061;BME280;4073;42.626;25.386;2023-08-21T04:23:29;97368.09;;;25.21;70.20
8061;BME280;4073;42.626;25.386;2023-08-21T04:26:04;97362.22;;;25.38;69.81
8061;BME280;4073;42.626;25.386;2023-08-21T04:28:30;97374.94;;;25.49;68.79
8061;BME280;4073;42.626;25.386;2023-08-21T04:30:56;97362.16;;;25.57;68.63
8061;BME280;4073;42.626;25.386;2023-08-21T04:33:24;97364.72;;;25.69;67.48
8061;BME280;4073;42.626;25.386;2023-08-21T04:35:50;97354.75;;;25.80;66.45
8061;BME280;4073;42.626;25.386;2023-08-21T04:38:15;97360.47;;;25.94;66.11
8061;BME280;4073;42.626;25.386;2023-08-21T04:40:41;97355.19;;;26.04;65.27
8061;BME280;4073;42.626;25.386;2023-08-21T04:43:06;97366.34;;;26.15;65.63
8061;BME280;4073;42.626;25.386;2023-08-21T04:45:32;97373.97;;;26.28;64.83
8061;BME280;4073;42.626;25.386;2023-08-21T04:47:58;97363.97;;;26.39;64.62
8061;BME280;4073;42.626;25.386;2023-08-21T04:50:23;97366.16;;;26.56;63.12
8061;BME280;4073;42.626;25.386;2023-08-21T04:52:49;97361.31;;;26.69;62.24
8061;BME280;4073;42.626;25.386;2023-08-21T04:55:15;97369.22;;;26.74;61.57
8061;BME280;4073;42.626;25.386;2023-08-21T04:57:41;97371.31;;;26.84;60.91
8061;BME280;4073;42.626;25.386;2023-08-21T05:00:07;97376.44;;;26.89;60.49
8061;BME280;4073;42.626;25.386;2023-08-21T05:02:33;97375.88;;;27.06;59.68
8061;BME280;4073;42.626;25.386;2023-08-21T05:04:59;97379.69;;;27.24;58.64
8061;BME280;4073;42.626;25.386;2023-08-21T05:07:25;97368.13;;;27.41;57.37
8061;BME280;4073;42.626;25.386;2023-08-21T05:09:52;97380.06;;;27.59;55.36
8061;BME280;4073;42.626;25.386;2023-08-21T05:12:17;97378.28;;;27.74;55.49
8061;BME280;4073;42.626;25.386;2023-08-21T05:14:43;97377.25;;;27.89;55.04
8061;BME280;4073;42.626;25.386;2023-08-21T05:17:08;97381.31;;;28.02;54.06
8061;BME280;4073;42.626;25.386;2023-08-21T05:19:34;97373.53;;;28.11;53.77
8061;BME280;4073;42.626;25.386;2023-08-21T05:21:59;97371.69;;;28.25;53.71
8061;BME280;4073;42.626;25.386;2023-08-21T05:24:25;97371.41;;;28.41;52.51
8061;BME280;4073;42.626;25.386;2023-08-21T05:26:50;97375.06;;;28.52;53.04
8061;BME280;4073;42.626;25.386;2023-08-21T05:29:16;97372.78;;;28.64;52.77
8061;BME280;4073;42.626;25.386;2023-08-21T05:31:41;97372.81;;;28.68;52.62
8061;BME280;4073;42.626;25.386;2023-08-21T05:34:07;97363.06;;;28.84;52.94
8061;BME280;4073;42.626;25.386;2023-08-21T05:36:33;97373.38;;;29.01;51.80
8061;BME280;4073;42.626;25.386;2023-08-21T05:38:58;97376.59;;;29.14;52.00
8061;BME280;4073;42.626;25.386;2023-08-21T05:41:24;97371.94;;;29.32;50.80
8061;BME280;4073;42.626;25.386;2023-08-21T05:43:50;97374.75;;;29.46;50.06
8061;BME280;4073;42.626;25.386;2023-08-21T05:46:15;97372.78;;;29.53;49.49
8061;BME280;4073;42.626;25.386;2023-08-21T05:48:41;97372.06;;;29.60;48.60
8061;BME280;4073;42.626;25.386;2023-08-21T05:51:06;97375.22;;;29.69;48.55
8061;BME280;4073;42.626;25.386;2023-08-21T05:53:32;97378.38;;;29.74;48.43
8061;BME280;4073;42.626;25.386;2023-08-21T05:55:57;97373.31;;;29.87;48.42
8061;BME280;4073;42.626;25.386;2023-08-21T05:58:22;97361.09;;;29.99;47.01
8061;BME280;4073;42.626;25.386;2023-08-21T06:00:48;97379.19;;;30.03;46.11
8061;BME280;4073;42.626;25.386;2023-08-21T06:03:14;97378.81;;;30.05;46.12
8061;BME280;4073;42.626;25.386;2023-08-21T06:05:39;97377.25;;;30.04;46.28
8061;BME280;4073;42.626;25.386;2023-08-21T06:08:05;97376.84;;;30.12;46.28
8061;BME280;4073;42.626;25.386;2023-08-21T06:10:33;97366.22;;;30.11;46.59
8061;BME280;4073;42.626;25.386;2023-08-21T06:12:58;97384.78;;;30.38;45.68
8061;BME280;4073;42.626;25.386;2023-08-21T06:15:24;97390.63;;;30.61;45.11
8061;BME280;4073;42.626;25.386;2023-08-21T06:17:49;97386.31;;;30.74;44.71
8061;BME280;4073;42.626;25.386;2023-08-21T06:20:15;97388.66;;;30.83;44.42
8061;BME280;4073;42.626;25.386;2023-08-21T06:22:40;97391.38;;;30.97;43.98
8061;BME280;4073;42.626;25.386;2023-08-21T06:25:07;97386.25;;;30.99;43.33
8061;BME280;4073;42.626;25.386;2023-08-21T06:27:32;97387.81;;;31.10;43.03
8061;BME280;4073;42.626;25.386;2023-08-21T06:29:58;97389.38;;;31.11;42.89
8061;BME280;4073;42.626;25.386;2023-08-21T06:32:23;97393.28;;;31.14;42.91
8061;BME280;4073;42.626;25.386;2023-08-21T06:34:49;97389.72;;;31.31;42.41
8061;BME280;4073;42.626;25.386;2023-08-21T06:37:14;97395.13;;;31.55;41.66
8061;BME280;4073;42.626;25.386;2023-08-21T06:39:40;97382.78;;;31.74;41.59
8061;BME280;4073;42.626;25.386;2023-08-21T06:42:05;97393.78;;;31.88;41.16
8061;BME280;4073;42.626;25.386;2023-08-21T06:44:31;97391.72;;;32.03;40.72
8061;BME280;4073;42.626;25.386;2023-08-21T06:46:56;97395.03;;;32.31;40.56
8061;BME280;4073;42.626;25.386;2023-08-21T06:49:22;97389.53;;;32.35;39.73
8061;BME280;4073;42.626;25.386;2023-08-21T06:51:48;97389.13;;;32.29;39.58
8061;BME280;4073;42.626;25.386;2023-08-21T06:54:14;97387.31;;;32.09;39.80
8061;BME280;4073;42.626;25.386;2023-08-21T06:56:39;97402.66;;;32.17;40.07
8061;BME280;4073;42.626;25.386;2023-08-21T06:59:05;97391.47;;;32.31;39.25
8061;BME280;4073;42.626;25.386;2023-08-21T07:01:30;97387.88;;;32.41;39.11
8061;BME280;4073;42.626;25.386;2023-08-21T07:03:56;97390.22;;;32.46;38.99
8061;BME280;4073;42.626;25.386;2023-08-21T07:06:21;97389.28;;;32.59;38.82
8061;BME280;4073;42.626;25.386;2023-08-21T07:08:47;97401.50;;;32.65;38.83
8061;BME280;4073;42.626;25.386;2023-08-21T07:11:12;97395.41;;;32.81;38.50
8061;BME280;4073;42.626;25.386;2023-08-21T07:13:38;97400.47;;;32.93;38.16
8061;BME280;4073;42.626;25.386;2023-08-21T07:16:04;97391.69;;;32.98;37.51
8061;BME280;4073;42.626;25.386;2023-08-21T07:18:34;97396.72;;;33.10;37.65
8061;BME280;4073;42.626;25.386;2023-08-21T07:21:01;97391.72;;;33.28;37.84
8061;BME280;4073;42.626;25.386;2023-08-21T07:23:28;97388.88;;;33.38;36.67
8061;BME280;4073;42.626;25.386;2023-08-21T07:25:53;97388.06;;;33.38;37.20
8061;BME280;4073;42.626;25.386;2023-08-21T07:28:19;97381.06;;;33.26;37.02
8061;BME280;4073;42.626;25.386;2023-08-21T07:30:44;97394.09;;;33.29;36.86
8061;BME280;4073;42.626;25.386;2023-08-21T07:33:10;97392.41;;;33.39;36.65
8061;BME280;4073;42.626;25.386;2023-08-21T07:35:36;97382.63;;;33.61;36.42
8061;BME280;4073;42.626;25.386;2023-08-21T07:38:02;97369.13;;;33.63;35.99
8061;BME280;4073;42.626;25.386;2023-08-21T07:40:27;97380.09;;;33.43;35.99
8061;BME280;4073;42.626;25.386;2023-08-21T07:42:53;97385.72;;;33.36;36.50
8061;BME280;4073;42.626;25.386;2023-08-21T07:45:19;97379.28;;;33.43;36.88
8061;BME280;4073;42.626;25.386;2023-08-21T07:47:44;97386.59;;;33.60;36.23
8061;BME280;4073;42.626;25.386;2023-08-21T07:50:10;97387.50;;;33.80;36.16
8061;BME280;4073;42.626;25.386;2023-08-21T07:52:36;97383.25;;;34.02;35.39
8061;BME280;4073;42.626;25.386;2023-08-21T07:55:01;97388.50;;;34.19;35.96
8061;BME280;4073;42.626;25.386;2023-08-21T07:57:28;97398.25;;;34.77;34.57
8061;BME280;4073;42.626;25.386;2023-08-21T07:59:54;97384.28;;;35.23;33.38
8061;BME280;4073;42.626;25.386;2023-08-21T08:02:38;97386.84;;;35.73;32.37
8061;BME280;4073;42.626;25.386;2023-08-21T08:05:04;97387.94;;;35.95;32.37
8061;BME280;4073;42.626;25.386;2023-08-21T08:07:29;97374.56;;;35.90;32.25
8061;BME280;4073;42.626;25.386;2023-08-21T08:09:55;97394.03;;;36.06;32.24
8061;BME280;4073;42.626;25.386;2023-08-21T08:12:20;97390.41;;;36.25;31.58
8061;BME280;4073;42.626;25.386;2023-08-21T08:14:46;97393.38;;;36.50;29.78
8061;BME280;4073;42.626;25.386;2023-08-21T08:17:12;97386.31;;;36.94;29.45
8061;BME280;4073;42.626;25.386;2023-08-21T08:19:37;97391.06;;;37.09;29.93
8061;BME280;4073;42.626;25.386;2023-08-21T08:22:03;97387.03;;;37.10;29.61
8061;BME280;4073;42.626;25.386;2023-08-21T08:24:28;97379.34;;;37.14;29.78
8061;BME280;4073;42.626;25.386;2023-08-21T08:26:54;97383.56;;;37.06;28.78
8061;BME280;4073;42.626;25.386;2023-08-21T08:29:19;97388.41;;;37.18;28.90
8061;BME280;4073;42.626;25.386;2023-08-21T08:31:44;97367.75;;;37.44;28.82
8061;BME280;4073;42.626;25.386;2023-08-21T08:34:10;97383.22;;;37.86;28.94
8061;BME280;4073;42.626;25.386;2023-08-21T08:36:36;97391.00;;;37.66;31.13
8061;BME280;4073;42.626;25.386;2023-08-21T08:39:01;97379.84;;;37.25;30.74
8061;BME280;4073;42.626;25.386;2023-08-21T08:41:33;97371.16;;;36.95;30.74
8061;BME280;4073;42.626;25.386;2023-08-21T08:44:02;97375.53;;;36.64;30.85
8061;BME280;4073;42.626;25.386;2023-08-21T08:46:29;97376.59;;;36.70;31.54
8061;BME280;4073;42.626;25.386;2023-08-21T08:48:55;97373.63;;;36.61;31.37
8061;BME280;4073;42.626;25.386;2023-08-21T08:51:24;97372.41;;;36.62;32.66
8061;BME280;4073;42.626;25.386;2023-08-21T08:53:49;97370.78;;;36.48;31.78
8061;BME280;4073;42.626;25.386;2023-08-21T08:56:15;97380.22;;;36.18;30.65
8061;BME280;4073;42.626;25.386;2023-08-21T08:58:40;97378.41;;;36.12;31.46
8061;BME280;4073;42.626;25.386;2023-08-21T09:01:08;97377.81;;;36.36;31.96
8061;BME280;4073;42.626;25.386;2023-08-21T09:03:36;97369.63;;;36.62;30.81
8061;BME280;4073;42.626;25.386;2023-08-21T09:06:02;97363.00;;;36.72;30.88
8061;BME280;4073;42.626;25.386;2023-08-21T09:08:28;97369.22;;;36.92;30.54
8061;BME280;4073;42.626;25.386;2023-08-21T09:10:53;97377.69;;;37.58;30.34
8061;BME280;4073;42.626;25.386;2023-08-21T09:13:19;97379.44;;;38.05;29.12
8061;BME280;4073;42.626;25.386;2023-08-21T09:15:47;97381.69;;;38.23;28.77
8061;BME280;4073;42.626;25.386;2023-08-21T09:18:13;97381.75;;;38.44;28.77
8061;BME280;4073;42.626;25.386;2023-08-21T09:20:41;97386.25;;;38.54;28.39
8061;BME280;4073;42.626;25.386;2023-08-21T09:23:07;97372.97;;;39.14;26.70
8061;BME280;4073;42.626;25.386;2023-08-21T09:25:38;97377.66;;;39.17;26.73
8061;BME280;4073;42.626;25.386;2023-08-21T09:28:05;97367.41;;;37.96;27.55
8061;BME280;4073;42.626;25.386;2023-08-21T09:30:50;97361.69;;;37.87;28.12
8061;BME280;4073;42.626;25.386;2023-08-21T09:33:20;97367.28;;;38.12;27.45
8061;BME280;4073;42.626;25.386;2023-08-21T09:35:46;97365.72;;;38.23;28.49
8061;BME280;4073;42.626;25.386;2023-08-21T09:38:12;97356.19;;;38.33;27.26
8061;BME280;4073;42.626;25.386;2023-08-21T09:40:43;97373.16;;;38.64;27.21
8061;BME280;4073;42.626;25.386;2023-08-21T09:43:10;97355.25;;;38.61;26.02
8061;BME280;4073;42.626;25.386;2023-08-21T09:45:37;97369.03;;;38.56;25.67
8061;BME280;4073;42.626;25.386;2023-08-21T09:48:03;97364.81;;;38.51;26.38
8061;BME280;4073;42.626;25.386;2023-08-21T09:50:29;97369.81;;;38.56;28.29
8061;BME280;4073;42.626;25.386;2023-08-21T09:52:56;97364.47;;;38.37;27.63
8061;BME280;4073;42.626;25.386;2023-08-21T09:55:23;97364.59;;;38.21;28.07
8061;BME280;4073;42.626;25.386;2023-08-21T09:57:51;97360.91;;;37.99;28.65
8061;BME280;4073;42.626;25.386;2023-08-21T10:00:33;97360.81;;;37.77;28.14
8061;BME280;4073;42.626;25.386;2023-08-21T10:03:03;97355.75;;;37.72;28.83
8061;BME280;4073;42.626;25.386;2023-08-21T10:05:31;97355.88;;;37.81;28.91
8061;BME280;4073;42.626;25.386;2023-08-21T10:08:00;97349.19;;;37.79;28.95
8061;BME280;4073;42.626;25.386;2023-08-21T10:10:29;97347.28;;;38.01;28.72
8061;BME280;4073;42.626;25.386;2023-08-21T10:12:56;97350.09;;;37.76;28.43
8061;BME280;4073;42.626;25.386;2023-08-21T10:15:22;97340.97;;;37.59;29.15
8061;BME280;4073;42.626;25.386;2023-08-21T10:17:48;97342.13;;;37.62;29.32
8061;BME280;4073;42.626;25.386;2023-08-21T10:20:20;97340.03;;;37.66;28.93
8061;BME280;4073;42.626;25.386;2023-08-21T10:22:54;97336.63;;;37.46;29.49
8061;BME280;4073;42.626;25.386;2023-08-21T10:25:23;97346.47;;;37.50;29.45
8061;BME280;4073;42.626;25.386;2023-08-21T10:27:58;97335.84;;;37.58;29.18
8061;BME280;4073;42.626;25.386;2023-08-21T10:30:27;97303.53;;;37.73;28.96
8061;BME280;4073;42.626;25.386;2023-08-21T10:32:58;97347.75;;;37.74;27.31
8061;BME280;4073;42.626;25.386;2023-08-21T10:35:33;97337.13;;;38.19;27.35
8061;BME280;4073;42.626;25.386;2023-08-21T10:38:15;97339.66;;;38.86;26.48
8061;BME280;4073;42.626;25.386;2023-08-21T10:41:04;97340.41;;;39.20;26.38
8061;BME280;4073;42.626;25.386;2023-08-21T10:43:45;97338.50;;;39.17;25.77
8061;BME280;4073;42.626;25.386;2023-08-21T10:46:12;97340.47;;;39.81;25.50
8061;BME280;4073;42.626;25.386;2023-08-21T10:48:39;97340.94;;;39.80;23.88
8061;BME280;4073;42.626;25.386;2023-08-21T10:51:06;97330.47;;;40.02;23.66
8061;BME280;4073;42.626;25.386;2023-08-21T10:53:33;97330.81;;;40.13;23.48
8061;BME280;4073;42.626;25.386;2023-08-21T10:56:05;97328.63;;;40.17;23.52
8061;BME280;4073;42.626;25.386;2023-08-21T10:58:44;97327.97;;;39.43;24.55
8061;BME280;4073;42.626;25.386;2023-08-21T11:01:15;97326.22;;;39.67;24.40
8061;BME280;4073;42.626;25.386;2023-08-21T11:03:40;97327.06;;;39.76;23.18
8061;BME280;4073;42.626;25.386;2023-08-21T11:06:10;97325.81;;;40.17;22.88
8061;BME280;4073;42.626;25.386;2023-08-21T11:08:36;97331.28;;;40.69;22.50
8061;BME280;4073;42.626;25.386;2023-08-21T11:11:03;97320.00;;;41.41;22.82
8061;BME280;4073;42.626;25.386;2023-08-21T11:13:29;97329.44;;;42.45;21.72
8061;BME280;4073;42.626;25.386;2023-08-21T11:16:04;97333.25;;;42.80;20.60
8061;BME280;4073;42.626;25.386;2023-08-21T11:18:37;97328.47;;;42.71;21.06
8061;BME280;4073;42.626;25.386;2023-08-21T11:21:11;97331.47;;;42.68;21.23
8061;BME280;4073;42.626;25.386;2023-08-21T11:23:38;97325.81;;;42.44;21.41
8061;BME280;4073;42.626;25.386;2023-08-21T11:26:05;97337.13;;;43.06;20.63
8061;BME280;4073;42.626;25.386;2023-08-21T11:28:31;97320.81;;;42.16;21.21
8061;BME280;4073;42.626;25.386;2023-08-21T11:30:57;97323.00;;;42.91;20.91
8061;BME280;4073;42.626;25.386;2023-08-21T11:33:24;97314.78;;;42.41;21.05
8061;BME280;4073;42.626;25.386;2023-08-21T11:35:50;97302.69;;;41.84;21.75
8061;BME280;4073;42.626;25.386;2023-08-21T11:38:22;97312.53;;;40.48;23.10
8061;BME280;4073;42.626;25.386;2023-08-21T11:40:58;97311.13;;;39.86;23.85
8061;BME280;4073;42.626;25.386;2023-08-21T11:43:38;97313.34;;;40.57;23.54
8061;BME280;4073;42.626;25.386;2023-08-21T11:46:08;97270.06;;;40.95;22.67
8061;BME280;4073;42.626;25.386;2023-08-21T11:48:37;97301.63;;;39.92;23.11
8061;BME280;4073;42.626;25.386;2023-08-21T11:51:03;97302.63;;;39.77;23.82
8061;BME280;4073;42.626;25.386;2023-08-21T11:55:59;97298.34;;;39.54;24.40
8061;BME280;4073;42.626;25.386;2023-08-21T11:58:28;97301.41;;;39.38;24.31
8061;BME280;4073;42.626;25.386;2023-08-21T12:00:54;97304.50;;;38.97;23.79
8061;BME280;4073;42.626;25.386;2023-08-21T12:03:20;97291.22;;;38.67;24.41
8061;BME280;4073;42.626;25.386;2023-08-21T12:05:45;97292.72;;;38.46;24.83
8061;BME280;4073;42.626;25.386;2023-08-21T12:08:11;97299.06;;;38.59;24.93
8061;BME280;4073;42.626;25.386;2023-08-21T12:10:36;97287.44;;;38.02;24.83
8061;BME280;4073;42.626;25.386;2023-08-21T12:13:02;97302.19;;;38.15;23.85
8061;BME280;4073;42.626;25.386;2023-08-21T12:15:28;97292.31;;;38.35;22.84
8061;BME280;4073;42.626;25.386;2023-08-21T12:17:53;97293.50;;;38.47;22.36
8061;BME280;4073;42.626;25.386;2023-08-21T12:20:19;97285.44;;;38.49;22.67
8061;BME280;4073;42.626;25.386;2023-08-21T12:22:44;97278.28;;;38.01;23.26
8061;BME280;4073;42.626;25.386;2023-08-21T12:25:10;97293.03;;;37.89;24.22
8061;BME280;4073;42.626;25.386;2023-08-21T12:27:36;97277.19;;;37.86;23.71
8061;BME280;4073;42.626;25.386;2023-08-21T12:30:02;97286.56;;;37.92;23.40
8061;BME280;4073;42.626;25.386;2023-08-21T12:32:28;97290.41;;;38.32;23.06
8061;BME280;4073;42.626;25.386;2023-08-21T12:34:53;97292.72;;;38.46;23.67
8061;BME280;4073;42.626;25.386;2023-08-21T12:37:19;97277.59;;;38.22;23.24
8061;BME280;4073;42.626;25.386;2023-08-21T12:39:44;97279.75;;;38.18;22.06
8061;BME280;4073;42.626;25.386;2023-08-21T12:42:10;97275.38;;;38.17;22.45
8061;BME280;4073;42.626;25.386;2023-08-21T12:44:35;97259.16;;;38.25;23.19
8061;BME280;4073;42.626;25.386;2023-08-21T12:47:01;97250.81;;;38.46;23.09
8061;BME280;4073;42.626;25.386;2023-08-21T12:49:27;97272.13;;;38.87;22.30
8061;BME280;4073;42.626;25.386;2023-08-21T12:51:52;97262.94;;;38.65;22.30
8061;BME280;4073;42.626;25.386;2023-08-21T12:54:18;97255.63;;;38.58;22.83
8061;BME280;4073;42.626;25.386;2023-08-21T12:56:43;97262.56;;;38.54;22.53
8061;BME280;4073;42.626;25.386;2023-08-21T12:59:09;97246.44;;;38.58;22.82
8061;BME280;4073;42.626;25.386;2023-08-21T13:01:34;97264.50;;;38.66;21.92
8061;BME280;4073;42.626;25.386;2023-08-21T13:04:01;97262.13;;;38.43;22.50
8061;BME280;4073;42.626;25.386;2023-08-21T13:06:26;97247.81;;;38.41;21.90
8061;BME280;4073;42.626;25.386;2023-08-21T13:08:53;97244.28;;;38.28;22.25
8061;BME280;4073;42.626;25.386;2023-08-21T13:11:19;97247.81;;;38.41;22.27
8061;BME280;4073;42.626;25.386;2023-08-21T13:13:44;97247.81;;;38.53;22.24
8061;BME280;4073;42.626;25.386;2023-08-21T13:16:10;97234.63;;;38.76;21.88
8061;BME280;4073;42.626;25.386;2023-08-21T13:18:35;97238.44;;;38.69;22.04